createdAt,value
2022-12-23T00:02:05.664Z,101272.00
2022-12-23T00:04:38.510Z,101264.00
2022-12-23T00:07:11.359Z,101269.00
2022-12-23T00:09:44.408Z,101269.00
2022-12-23T00:12:42.027Z,101270.00
2022-12-23T00:15:15.561Z,101271.00
2022-12-23T00:17:49.479Z,101265.00
2022-12-23T00:20:22.410Z,101262.00
2022-12-23T00:23:10.550Z,101255.00
2022-12-23T00:25:46.234Z,101259.00
2022-12-23T00:28:20.567Z,101250.00
2022-12-23T00:30:58.088Z,101256.00
2022-12-23T00:33:36.446Z,101252.00
2022-12-23T00:36:17.262Z,101260.00
2022-12-23T00:38:51.426Z,101250.00
2022-12-23T00:41:46.954Z,101255.00
2022-12-23T00:44:19.874Z,101258.00
2022-12-23T00:46:52.990Z,101257.00
2022-12-23T00:49:43.424Z,101242.00
2022-12-23T00:52:21.284Z,101249.00
2022-12-23T00:54:54.181Z,101244.00
2022-12-23T00:57:27.108Z,101242.00
2022-12-23T01:00:00.249Z,101244.00
2022-12-23T01:02:51.401Z,101238.00
2022-12-23T01:05:40.638Z,101245.00
2022-12-23T01:08:15.316Z,101244.00
2022-12-23T01:10:48.122Z,101242.00
2022-12-23T01:13:21.009Z,101239.00
2022-12-23T01:15:53.926Z,101239.00
2022-12-23T01:18:26.988Z,101229.00
2022-12-23T01:21:00.102Z,101226.00
2022-12-23T01:23:33.133Z,101222.00
2022-12-23T01:26:07.364Z,101226.00
2022-12-23T01:28:40.787Z,101224.00
2022-12-23T01:31:17.291Z,101221.00
2022-12-23T01:33:50.422Z,101226.00
2022-12-23T01:36:23.556Z,101218.00
2022-12-23T01:38:56.272Z,101208.00
2022-12-23T01:41:47.755Z,101207.00
2022-12-23T01:44:54.969Z,101217.00
2022-12-23T01:47:42.180Z,101215.00
2022-12-23T01:50:16.704Z,101215.00
2022-12-23T01:53:09.461Z,101226.00
2022-12-23T01:55:44.418Z,101221.00
2022-12-23T01:58:19.343Z,101227.00
2022-12-23T02:01:09.568Z,101219.00
2022-12-23T02:03:46.962Z,101222.00
2022-12-23T02:06:54.893Z,101218.00
2022-12-23T02:09:36.041Z,101213.00
2022-12-23T02:12:17.182Z,101203.00
2022-12-23T02:15:24.362Z,101204.00
2022-12-23T02:18:11.882Z,101204.00
2022-12-23T02:21:05.055Z,101209.00
2022-12-23T02:23:51.646Z,101197.00
2022-12-23T02:26:32.284Z,101196.00
2022-12-23T02:29:18.482Z,101199.00
2022-12-23T02:32:03.088Z,101191.00
2022-12-23T02:34:43.962Z,101189.00
2022-12-23T02:37:24.611Z,101189.00
2022-12-23T02:40:02.651Z,101180.00
2022-12-23T02:42:37.166Z,101176.00
2022-12-23T02:45:14.723Z,101187.00
2022-12-23T02:47:49.982Z,101176.00
2022-12-23T02:50:24.528Z,101177.00
2022-12-23T02:52:58.986Z,101173.00
2022-12-23T02:55:37.070Z,101176.00
2022-12-23T02:58:11.948Z,101179.00
2022-12-23T03:00:46.696Z,101180.00
2022-12-23T03:03:25.709Z,101186.00
2022-12-23T03:05:59.585Z,101175.00
2022-12-23T03:08:37.162Z,101175.00
2022-12-23T03:11:15.246Z,101174.00
2022-12-23T03:14:07.932Z,101178.00
2022-12-23T03:17:09.940Z,101171.00
2022-12-23T03:19:47.975Z,101162.00
2022-12-23T03:22:25.753Z,101169.00
2022-12-23T03:25:06.506Z,101167.00
2022-12-23T03:27:41.333Z,101164.00
2022-12-23T03:30:16.651Z,101153.00
2022-12-23T03:33:01.752Z,101164.00
2022-12-23T03:35:39.292Z,101167.00
2022-12-23T03:38:13.621Z,101169.00
2022-12-23T03:40:48.933Z,101158.00
2022-12-23T03:43:27.516Z,101161.00
2022-12-23T03:46:14.171Z,101159.00
2022-12-23T03:48:51.755Z,101163.00
2022-12-23T03:51:39.762Z,101157.00
2022-12-23T03:54:14.874Z,101168.00
2022-12-23T03:56:49.443Z,101165.00
2022-12-23T03:59:27.493Z,101163.00
2022-12-23T04:02:26.549Z,101158.00
2022-12-23T04:05:18.016Z,101155.00
2022-12-23T04:08:10.770Z,101153.00
2022-12-23T04:10:43.760Z,101145.00
2022-12-23T04:13:16.699Z,101138.00
2022-12-23T04:15:49.990Z,101150.00
2022-12-23T04:18:22.860Z,101143.00
2022-12-23T04:20:55.920Z,101149.00
2022-12-23T04:23:28.923Z,101148.00
2022-12-23T04:26:01.929Z,101146.00
2022-12-23T04:28:35.716Z,101146.00
2022-12-23T04:31:08.851Z,101139.00
2022-12-23T04:36:36.180Z,101134.00
2022-12-23T04:39:09.033Z,101134.00
2022-12-23T04:41:45.225Z,101136.00
2022-12-23T04:44:28.646Z,101141.00
2022-12-23T04:47:02.778Z,101142.00
2022-12-23T04:49:41.654Z,101142.00
2022-12-23T04:52:20.744Z,101138.00
2022-12-23T04:54:55.370Z,101138.00
2022-12-23T04:57:28.225Z,101130.00
2022-12-23T05:00:02.404Z,101137.00
2022-12-23T05:02:35.528Z,101149.00
2022-12-23T05:05:08.824Z,101144.00
2022-12-23T05:07:41.747Z,101147.00
2022-12-23T05:10:15.192Z,101143.00
2022-12-23T05:12:48.361Z,101134.00
2022-12-23T05:15:21.146Z,101132.00
2022-12-23T05:17:53.813Z,101133.00
2022-12-23T05:20:26.749Z,101130.00
2022-12-23T05:22:59.535Z,101133.00
2022-12-23T05:25:32.616Z,101134.00
2022-12-23T05:28:05.377Z,101130.00
2022-12-23T05:30:38.384Z,101127.00
2022-12-23T05:33:13.633Z,101127.00
2022-12-23T05:35:49.478Z,101136.00
2022-12-23T05:38:29.650Z,101116.00
2022-12-23T05:41:03.303Z,101127.00
2022-12-23T05:43:37.520Z,101119.00
2022-12-23T05:46:24.356Z,101127.00
2022-12-23T05:48:56.146Z,101130.00
2022-12-23T05:51:30.269Z,101128.00
2022-12-23T05:54:03.128Z,101143.00
2022-12-23T05:56:36.394Z,101136.00
2022-12-23T05:59:09.169Z,101136.00
2022-12-23T06:01:42.136Z,101138.00
2022-12-23T06:04:16.436Z,101135.00
2022-12-23T06:06:49.679Z,101139.00
2022-12-23T06:09:22.534Z,101138.00
2022-12-23T06:11:55.417Z,101145.00
2022-12-23T06:14:29.401Z,101138.00
2022-12-23T06:17:02.463Z,101128.00
2022-12-23T06:19:35.581Z,101130.00
2022-12-23T06:22:08.530Z,101133.00
2022-12-23T06:24:41.649Z,101135.00
2022-12-23T06:27:14.366Z,101133.00
2022-12-23T06:29:47.375Z,101145.00
2022-12-23T06:32:20.690Z,101143.00
2022-12-23T06:34:54.545Z,101146.00
2022-12-23T06:37:27.437Z,101145.00
2022-12-23T06:40:00.133Z,101151.00
2022-12-23T06:42:33.081Z,101149.00
2022-12-23T06:45:06.208Z,101153.00
2022-12-23T06:47:39.283Z,101162.00
2022-12-23T06:50:12.793Z,101155.00
2022-12-23T06:52:45.865Z,101162.00
2022-12-23T06:55:19.415Z,101164.00
2022-12-23T06:57:52.320Z,101154.00
2022-12-23T07:00:29.828Z,101158.00
2022-12-23T07:03:05.845Z,101159.00
2022-12-23T07:05:39.019Z,101156.00
2022-12-23T07:11:05.875Z,101168.00
2022-12-23T07:13:38.717Z,101179.00
2022-12-23T07:16:12.686Z,101181.00
2022-12-23T07:18:45.603Z,101183.00
2022-12-23T07:21:24.839Z,101180.00
2022-12-23T07:23:52.215Z,101180.00
2022-12-23T07:26:25.012Z,101195.00
2022-12-23T07:28:57.993Z,101190.00
2022-12-23T07:34:30.691Z,101179.00
2022-12-23T07:37:04.299Z,101193.00
2022-12-23T07:39:41.224Z,101192.00
2022-12-23T07:42:44.408Z,101188.00
2022-12-23T07:45:03.042Z,101203.00
2022-12-23T07:47:36.666Z,101198.00
2022-12-23T07:50:12.781Z,101204.00
2022-12-23T07:52:49.381Z,101203.00
2022-12-23T07:55:25.883Z,101211.00
2022-12-23T07:58:03.293Z,101214.00
2022-12-23T08:00:36.174Z,101210.00
2022-12-23T08:03:09.035Z,101210.00
2022-12-23T08:05:46.202Z,101212.00
2022-12-23T08:08:19.108Z,101213.00
2022-12-23T08:10:52.190Z,101219.00
2022-12-23T08:13:24.869Z,101207.00
2022-12-23T08:16:05.106Z,101209.00
2022-12-23T08:18:39.722Z,101211.00
2022-12-23T08:21:21.314Z,101212.00
2022-12-23T08:23:54.681Z,101212.00
2022-12-23T08:26:28.621Z,101216.00
2022-12-23T08:29:01.479Z,101210.00
2022-12-23T08:31:34.779Z,101213.00
2022-12-23T08:34:07.677Z,101223.00
2022-12-23T08:36:42.240Z,101222.00
2022-12-23T08:39:15.599Z,101230.00
2022-12-23T08:41:50.483Z,101228.00
2022-12-23T08:44:23.670Z,101233.00
2022-12-23T08:46:56.554Z,101234.00
2022-12-23T08:49:29.586Z,101232.00
2022-12-23T08:52:02.354Z,101236.00
2022-12-23T08:54:35.205Z,101234.00
2022-12-23T08:57:08.336Z,101238.00
2022-12-23T08:59:41.300Z,101243.00
2022-12-23T09:02:18.897Z,101258.00
2022-12-23T09:04:51.861Z,101251.00
2022-12-23T09:07:24.792Z,101250.00
2022-12-23T09:09:57.856Z,101248.00
2022-12-23T09:12:30.611Z,101246.00
2022-12-23T09:15:03.450Z,101246.00
2022-12-23T09:17:36.433Z,101257.00
2022-12-23T09:20:10.456Z,101259.00
2022-12-23T09:22:43.268Z,101261.00
2022-12-23T09:25:31.760Z,101261.00
2022-12-23T09:28:06.372Z,101270.00
2022-12-23T09:30:39.143Z,101272.00
2022-12-23T09:33:11.909Z,101277.00
2022-12-23T09:35:44.767Z,101284.00
2022-12-23T09:38:17.668Z,101285.00
2022-12-23T09:40:50.628Z,101286.00
2022-12-23T09:43:44.784Z,101277.00
2022-12-23T09:46:22.409Z,101283.00
2022-12-23T09:49:03.369Z,101275.00
2022-12-23T09:51:37.119Z,101274.00
2022-12-23T09:54:27.322Z,101277.00
2022-12-23T09:57:08.597Z,101278.00
2022-12-23T09:59:46.312Z,101278.00
2022-12-23T10:02:29.899Z,101282.00
2022-12-23T10:05:05.182Z,101283.00
2022-12-23T10:07:52.194Z,101277.00
2022-12-23T10:10:40.172Z,101279.00
2022-12-23T10:13:29.572Z,101273.00
2022-12-23T10:16:05.347Z,101271.00
2022-12-23T10:18:58.409Z,101267.00
2022-12-23T10:21:56.021Z,101275.00
2022-12-23T10:24:31.081Z,101282.00
2022-12-23T10:27:08.583Z,101282.00
2022-12-23T10:29:41.768Z,101276.00
2022-12-23T10:32:49.743Z,101276.00
2022-12-23T10:35:44.279Z,101282.00
2022-12-23T10:38:25.038Z,101278.00
2022-12-23T10:41:21.027Z,101264.00
2022-12-23T10:44:11.309Z,101275.00
2022-12-23T10:47:21.251Z,101272.00
2022-12-23T10:50:04.909Z,101258.00
2022-12-23T10:52:39.423Z,101261.00
2022-12-23T10:55:34.068Z,101260.00
2022-12-23T10:58:08.132Z,101263.00
2022-12-23T11:00:42.925Z,101268.00
2022-12-23T11:03:21.388Z,101272.00
2022-12-23T11:05:55.231Z,101273.00
2022-12-23T11:08:29.515Z,101268.00
2022-12-23T11:11:04.215Z,101271.00
2022-12-23T11:13:48.829Z,101275.00
2022-12-23T11:16:42.881Z,101278.00
2022-12-23T11:19:27.415Z,101280.00
2022-12-23T11:22:03.775Z,101265.00
2022-12-23T11:24:42.872Z,101270.00
2022-12-23T11:27:17.999Z,101271.00
2022-12-23T11:29:55.661Z,101269.00
2022-12-23T11:32:30.737Z,101261.00
2022-12-23T11:35:04.077Z,101268.00
2022-12-23T11:37:46.855Z,101270.00
2022-12-23T11:40:27.717Z,101270.00
2022-12-23T11:43:05.453Z,101267.00
2022-12-23T11:45:42.524Z,101270.00
2022-12-23T11:48:32.648Z,101266.00
2022-12-23T11:51:07.028Z,101270.00
2022-12-23T11:53:40.056Z,101265.00
2022-12-23T11:56:15.673Z,101270.00
2022-12-23T11:58:56.395Z,101270.00
2022-12-23T12:01:30.070Z,101265.00
2022-12-23T12:04:07.526Z,101266.00
2022-12-23T12:06:42.540Z,101274.00
2022-12-23T12:09:17.005Z,101266.00
2022-12-23T12:11:52.405Z,101254.00
2022-12-23T12:14:27.285Z,101254.00
2022-12-23T12:17:23.333Z,101250.00
2022-12-23T12:20:01.199Z,101249.00
2022-12-23T12:22:57.561Z,101237.00
2022-12-23T12:25:57.950Z,101233.00
2022-12-23T12:28:35.378Z,101233.00
2022-12-23T12:31:31.768Z,101232.00
2022-12-23T12:34:26.873Z,101226.00
2022-12-23T12:37:20.765Z,101230.00
2022-12-23T12:40:14.019Z,101225.00
2022-12-23T12:42:48.815Z,101234.00
2022-12-23T12:45:47.837Z,101230.00
2022-12-23T12:48:42.415Z,101235.00
2022-12-23T12:51:35.705Z,101231.00
2022-12-23T12:54:16.252Z,101239.00
2022-12-23T12:57:03.787Z,101227.00
2022-12-23T12:59:44.649Z,101217.00
2022-12-23T13:02:54.098Z,101220.00
2022-12-23T13:05:54.215Z,101218.00
2022-12-23T13:08:27.965Z,101209.00
2022-12-23T13:11:11.631Z,101215.00
2022-12-23T13:14:01.903Z,101207.00
2022-12-23T13:17:05.939Z,101213.00
2022-12-23T13:19:57.199Z,101212.00
2022-12-23T13:22:37.603Z,101207.00
2022-12-23T13:25:15.683Z,101210.00
2022-12-23T13:28:22.121Z,101210.00
2022-12-23T13:31:02.674Z,101214.00
2022-12-23T13:33:43.276Z,101209.00
2022-12-23T13:36:21.128Z,101207.00
2022-12-23T13:39:11.140Z,101208.00
2022-12-23T13:41:52.042Z,101198.00
2022-12-23T13:44:26.016Z,101209.00
2022-12-23T13:47:06.244Z,101210.00
2022-12-23T13:49:46.926Z,101203.00
2022-12-23T13:52:38.190Z,101196.00
2022-12-23T13:55:24.907Z,101188.00
2022-12-23T13:58:05.489Z,101191.00
2022-12-23T14:00:39.216Z,101178.00
2022-12-23T14:03:16.903Z,101175.00
2022-12-23T14:05:56.914Z,101165.00
2022-12-23T14:08:41.091Z,101165.00
2022-12-23T14:11:19.308Z,101167.00
2022-12-23T14:14:00.212Z,101169.00
2022-12-23T14:16:56.433Z,101180.00
2022-12-23T14:20:04.666Z,101167.00
2022-12-23T14:22:45.933Z,101173.00
2022-12-23T14:25:38.605Z,101172.00
2022-12-23T14:28:16.196Z,101161.00
2022-12-23T14:30:49.294Z,101165.00
2022-12-23T14:33:30.680Z,101167.00
2022-12-23T14:36:08.394Z,101157.00
2022-12-23T14:38:41.313Z,101151.00
2022-12-23T14:41:47.712Z,101150.00
2022-12-23T14:44:28.485Z,101142.00
2022-12-23T14:47:02.170Z,101141.00
2022-12-23T14:49:43.358Z,101138.00
2022-12-23T14:52:45.116Z,101138.00
2022-12-23T14:55:36.141Z,101149.00
2022-12-23T14:58:17.696Z,101142.00
2022-12-23T15:00:52.792Z,101141.00
2022-12-23T15:03:26.082Z,101136.00
2022-12-23T15:05:59.611Z,101135.00
2022-12-23T15:08:43.701Z,101137.00
2022-12-23T15:11:18.401Z,101134.00
2022-12-23T15:13:52.538Z,101130.00
2022-12-23T15:16:27.565Z,101127.00
2022-12-23T15:19:01.941Z,101125.00
2022-12-23T15:21:36.717Z,101119.00
2022-12-23T15:24:10.680Z,101130.00
2022-12-23T15:27:09.829Z,101136.00
2022-12-23T15:29:19.721Z,101127.00
2022-12-23T15:32:00.438Z,101127.00
2022-12-23T15:34:35.539Z,101131.00
2022-12-23T15:37:10.096Z,101123.00
2022-12-23T15:39:52.720Z,101137.00
2022-12-23T15:42:29.045Z,101128.00
2022-12-23T15:45:01.974Z,101113.00
2022-12-23T15:47:37.201Z,101108.00
2022-12-23T15:50:12.360Z,101107.00
2022-12-23T15:52:46.530Z,101125.00
2022-12-23T15:55:24.383Z,101142.00
2022-12-23T15:57:57.601Z,101138.00
2022-12-23T16:00:35.694Z,101139.00
2022-12-23T16:03:15.663Z,101143.00
2022-12-23T16:05:44.975Z,101146.00
2022-12-23T16:08:32.823Z,101162.00
2022-12-23T16:11:22.480Z,101156.00
2022-12-23T16:14:06.640Z,101159.00
2022-12-23T16:16:44.243Z,101166.00
2022-12-23T16:19:41.761Z,101162.00
2022-12-23T16:22:35.195Z,101165.00
2022-12-23T16:25:15.713Z,101174.00
2022-12-23T16:27:53.366Z,101177.00
2022-12-23T16:30:28.230Z,101174.00
2022-12-23T16:33:04.025Z,101172.00
2022-12-23T16:35:44.992Z,101165.00
2022-12-23T16:38:26.417Z,101164.00
2022-12-23T16:41:00.458Z,101183.00
2022-12-23T16:43:34.184Z,101186.00
2022-12-23T16:46:07.324Z,101188.00
2022-12-23T16:48:41.849Z,101188.00
2022-12-23T16:51:16.595Z,101169.00
2022-12-23T16:53:50.047Z,101164.00
2022-12-23T16:56:24.358Z,101160.00
2022-12-23T16:58:57.250Z,101163.00
2022-12-23T17:01:35.348Z,101159.00
2022-12-23T17:04:08.539Z,101158.00
2022-12-23T17:06:42.696Z,101177.00
2022-12-23T17:09:15.782Z,101187.00
2022-12-23T17:11:56.679Z,101189.00
2022-12-23T17:14:29.643Z,101195.00
2022-12-23T17:17:02.899Z,101198.00
2022-12-23T17:19:35.942Z,101193.00
2022-12-23T17:22:08.803Z,101210.00
2022-12-23T17:24:41.784Z,101197.00
2022-12-23T17:27:19.293Z,101186.00
2022-12-23T17:29:55.170Z,101182.00
2022-12-23T17:32:28.500Z,101174.00
2022-12-23T17:35:01.474Z,101191.00
2022-12-23T17:37:34.660Z,101198.00
2022-12-23T17:40:07.764Z,101205.00
2022-12-23T17:42:40.801Z,101202.00
2022-12-23T17:45:32.789Z,101199.00
2022-12-23T17:48:05.692Z,101188.00
2022-12-23T17:50:39.870Z,101180.00
2022-12-23T17:53:14.122Z,101187.00
2022-12-23T17:55:46.904Z,101184.00
2022-12-23T17:58:20.100Z,101185.00
2022-12-23T18:00:53.006Z,101190.00
2022-12-23T18:03:28.037Z,101176.00
2022-12-23T18:06:02.300Z,101179.00
2022-12-23T18:08:35.426Z,101177.00
2022-12-23T18:11:08.446Z,101192.00
2022-12-23T18:13:41.695Z,101179.00
2022-12-23T18:16:16.335Z,101194.00
2022-12-23T18:18:49.492Z,101191.00
2022-12-23T18:21:32.591Z,101198.00
2022-12-23T18:24:05.653Z,101199.00
2022-12-23T18:26:38.424Z,101197.00
2022-12-23T18:29:11.247Z,101195.00
2022-12-23T18:31:50.661Z,101206.00
2022-12-23T18:34:25.468Z,101215.00
2022-12-23T18:36:58.315Z,101212.00
2022-12-23T18:39:31.262Z,101216.00
2022-12-23T18:42:04.140Z,101206.00
2022-12-23T18:44:37.839Z,101212.00
2022-12-23T18:47:11.285Z,101193.00
2022-12-23T18:49:44.592Z,101186.00
2022-12-23T18:52:17.511Z,101196.00
2022-12-23T18:54:50.618Z,101206.00
2022-12-23T18:57:23.295Z,101207.00
2022-12-23T18:59:56.583Z,101215.00
2022-12-23T19:02:29.714Z,101210.00
2022-12-23T19:05:02.746Z,101218.00
2022-12-23T19:07:35.694Z,101221.00
2022-12-23T19:10:10.085Z,101221.00
2022-12-23T19:12:43.088Z,101231.00
2022-12-23T19:15:16.808Z,101237.00
2022-12-23T19:17:50.226Z,101237.00
2022-12-23T19:20:24.284Z,101221.00
2022-12-23T19:22:57.207Z,101229.00
2022-12-23T19:25:30.272Z,101226.00
2022-12-23T19:28:03.142Z,101217.00
2022-12-23T19:30:36.499Z,101215.00
2022-12-23T19:33:09.420Z,101216.00
2022-12-23T19:35:43.476Z,101207.00
2022-12-23T19:38:16.404Z,101220.00
2022-12-23T19:40:49.335Z,101222.00
2022-12-23T19:43:22.364Z,101212.00
2022-12-23T19:46:05.472Z,101211.00
2022-12-23T19:48:38.808Z,101201.00
2022-12-23T19:51:14.136Z,101200.00
2022-12-23T19:53:48.031Z,101206.00
2022-12-23T19:56:22.874Z,101204.00
2022-12-23T19:58:55.785Z,101200.00
2022-12-23T20:01:32.346Z,101200.00
2022-12-23T20:04:05.228Z,101208.00
2022-12-23T20:06:39.922Z,101200.00
2022-12-23T20:09:14.785Z,101210.00
2022-12-23T20:11:49.306Z,101212.00
2022-12-23T20:14:24.512Z,101217.00
2022-12-23T20:16:57.781Z,101216.00
2022-12-23T20:19:30.913Z,101210.00
2022-12-23T20:22:04.007Z,101207.00
2022-12-23T20:24:37.879Z,101195.00
2022-12-23T20:27:12.107Z,101200.00
2022-12-23T20:29:44.846Z,101197.00
2022-12-23T20:32:17.636Z,101193.00
2022-12-23T20:34:51.959Z,101196.00
2022-12-23T20:37:25.544Z,101200.00
2022-12-23T20:39:58.494Z,101211.00
2022-12-23T20:42:31.454Z,101215.00
2022-12-23T20:45:04.452Z,101200.00
2022-12-23T20:47:37.622Z,101199.00
2022-12-23T20:50:15.408Z,101196.00
2022-12-23T20:52:48.464Z,101197.00
2022-12-23T20:55:21.373Z,101181.00
2022-12-23T20:57:54.063Z,101171.00
2022-12-23T21:00:26.863Z,101166.00
2022-12-23T21:03:01.583Z,101156.00
2022-12-23T21:05:34.175Z,101156.00
2022-12-23T21:08:07.301Z,101172.00
2022-12-23T21:10:41.224Z,101180.00
2022-12-23T21:13:14.198Z,101183.00
2022-12-23T21:15:47.077Z,101169.00
2022-12-23T21:18:20.215Z,101169.00
2022-12-23T21:20:53.088Z,101174.00
2022-12-23T21:23:26.612Z,101196.00
2022-12-23T21:26:17.962Z,101196.00
2022-12-23T21:28:51.890Z,101198.00
2022-12-23T21:31:28.194Z,101190.00
2022-12-23T21:34:01.729Z,101196.00
2022-12-23T21:36:36.435Z,101171.00
2022-12-23T21:39:11.053Z,101178.00
2022-12-23T21:41:44.442Z,101188.00
2022-12-23T21:44:17.528Z,101201.00
2022-12-23T21:46:51.510Z,101198.00
2022-12-23T21:49:24.239Z,101198.00
2022-12-23T21:51:57.944Z,101200.00
2022-12-23T21:54:30.734Z,101202.00
2022-12-23T21:57:03.914Z,101194.00
2022-12-23T21:59:36.962Z,101179.00
2022-12-23T22:02:10.231Z,101175.00
2022-12-23T22:04:46.388Z,101186.00
2022-12-23T22:07:32.025Z,101190.00
2022-12-23T22:10:05.112Z,101188.00
2022-12-23T22:12:38.473Z,101198.00
2022-12-23T22:15:12.199Z,101186.00
2022-12-23T22:17:45.224Z,101187.00
2022-12-23T22:20:18.406Z,101181.00
2022-12-23T22:22:52.154Z,101180.00
2022-12-23T22:25:26.218Z,101175.00
2022-12-23T22:27:59.195Z,101185.00
2022-12-23T22:30:32.145Z,101187.00
2022-12-23T22:33:05.189Z,101191.00
2022-12-23T22:35:38.316Z,101191.00
2022-12-23T22:38:11.290Z,101188.00
2022-12-23T22:40:44.275Z,101183.00
2022-12-23T22:43:17.415Z,101178.00
2022-12-23T22:45:50.940Z,101183.00
2022-12-23T22:48:23.864Z,101185.00
2022-12-23T22:50:57.942Z,101186.00
2022-12-23T22:53:30.917Z,101182.00
2022-12-23T22:56:05.241Z,101179.00
2022-12-23T22:58:38.410Z,101178.00
2022-12-23T23:01:13.336Z,101184.00
2022-12-23T23:03:46.838Z,101183.00
2022-12-23T23:06:20.254Z,101172.00
2022-12-23T23:08:57.347Z,101172.00
2022-12-23T23:11:31.167Z,101170.00
2022-12-23T23:14:03.962Z,101172.00
2022-12-23T23:16:37.119Z,101158.00
2022-12-23T23:19:11.076Z,101158.00
2022-12-23T23:21:44.857Z,101179.00
2022-12-23T23:24:17.824Z,101173.00
2022-12-23T23:26:50.883Z,101189.00
2022-12-23T23:29:23.927Z,101183.00
2022-12-23T23:31:57.071Z,101188.00
2022-12-23T23:34:30.701Z,101187.00
2022-12-23T23:37:03.732Z,101186.00
2022-12-23T23:39:36.495Z,101183.00
2022-12-23T23:42:09.465Z,101179.00
2022-12-23T23:44:42.509Z,101187.00
2022-12-23T23:47:15.390Z,101179.00
2022-12-23T23:49:49.112Z,101170.00
2022-12-23T23:52:22.034Z,101160.00
2022-12-23T23:54:57.376Z,101163.00
2022-12-23T23:57:30.607Z,101161.00
